Time;durP1;ratioP1;P1;durP2;ratioP2;P2;SDS_P1;SDS_P2;PMS_P1;PMS_P2;Temp;Humidity;BMP_temperature;BMP_pressure;BME280_temperature;BME280_humidity;BME280_pressure;Samples;Min_cycle;Max_cycle;Signal;HPM_P1;HPM_P2
2022/12/07 00:01:26;;;;;;;;;;;17.50;41.40;;;;;;8330309;28;19917;-47
2022/12/07 00:05:29;;;;;;;;;;;17.50;41.50;;;;;;8330885;28;19917;-47
2022/12/07 00:09:29;;;;;;;;;;;17.40;41.40;;;;;;8330517;28;19921;-47
2022/12/07 00:13:30;;;;;;;;;;;17.40;41.40;;;;;;8330094;28;19968;-46
2022/12/07 00:17:31;;;;;;;;;;;17.40;41.40;;;;;;8329993;28;19917;-46
2022/12/07 00:21:33;;;;;;;;;;;17.40;41.40;;;;;;8330284;28;19944;-45
2022/12/07 00:25:33;;;;;;;;;;;17.40;41.40;;;;;;8329782;28;20361;-47
2022/12/07 00:29:34;;;;;;;;;;;17.40;41.40;;;;;;8330159;28;19921;-47
2022/12/07 00:33:35;;;;;;;;;;;17.40;42.00;;;;;;8330051;28;20380;-46
2022/12/07 00:37:35;;;;;;;;;;;17.40;41.40;;;;;;8329963;28;19917;-46
2022/12/07 00:41:35;;;;;;;;;;;17.40;41.90;;;;;;8329976;28;19917;-47
2022/12/07 00:45:36;;;;;;;;;;;17.40;41.40;;;;;;8330124;28;20009;-48
2022/12/07 00:49:36;;;;;;;;;;;17.40;41.40;;;;;;8329285;28;19917;-46
2022/12/07 00:53:37;;;;;;;;;;;17.40;41.40;;;;;;8330182;28;19917;-46
2022/12/07 00:57:38;;;;;;;;;;;17.40;41.40;;;;;;8329875;28;19917;-46
2022/12/07 01:01:38;;;;;;;;;;;17.40;41.40;;;;;;8329238;28;19924;-46
2022/12/07 01:05:39;;;;;;;;;;;17.40;41.50;;;;;;8329689;28;19917;-49
2022/12/07 01:09:39;;;;;;;;;;;17.40;41.40;;;;;;8329099;28;19968;-43
2022/12/07 01:13:40;;;;;;;;;;;17.40;41.40;;;;;;8329730;28;19918;-46
2022/12/07 01:17:41;;;;;;;;;;;17.40;41.50;;;;;;8329503;28;19924;-47
2022/12/07 01:21:41;;;;;;;;;;;17.40;41.50;;;;;;8328974;28;19953;-46
2022/12/07 01:25:42;;;;;;;;;;;17.40;41.50;;;;;;8329263;28;19928;-47
2022/12/07 01:29:42;;;;;;;;;;;17.40;41.50;;;;;;8331030;28;19921;-46
2022/12/07 01:33:44;;;;;;;;;;;17.30;41.40;;;;;;8333929;28;19994;-47
2022/12/07 01:37:44;;;;;;;;;;;17.30;41.40;;;;;;8335203;28;19924;-46
2022/12/07 01:41:45;;;;;;;;;;;17.30;41.40;;;;;;8334972;28;19924;-45
2022/12/07 01:45:45;;;;;;;;;;;17.30;41.40;;;;;;8336166;28;19924;-46
2022/12/07 01:49:48;;;;;;;;;;;17.30;41.40;;;;;;8334963;28;19924;-47
2022/12/07 01:53:48;;;;;;;;;;;17.30;41.40;;;;;;8334997;28;19917;-47
2022/12/07 01:57:50;;;;;;;;;;;17.30;41.40;;;;;;8332854;28;19917;-46
2022/12/07 02:01:51;;;;;;;;;;;17.30;41.50;;;;;;8333160;28;19917;-46
2022/12/07 02:05:52;;;;;;;;;;;17.30;41.40;;;;;;8341191;28;19929;-50
2022/12/07 02:09:53;;;;;;;;;;;17.30;41.50;;;;;;8333571;28;19929;-46
2022/12/07 02:13:53;;;;;;;;;;;17.30;41.50;;;;;;8334399;28;20401;-46
2022/12/07 02:18:14;;;;;;;;;;;17.20;41.40;;;;;;8334170;28;19920;-47
2022/12/07 02:22:33;;;;;;;;;;;17.30;41.50;;;;;;8333498;28;19918;-47
2022/12/07 02:26:37;;;;;;;;;;;17.20;41.40;;;;;;8333639;28;19940;-49
2022/12/07 02:30:42;;;;;;;;;;;17.20;41.50;;;;;;8333537;28;19925;-47
2022/12/07 02:34:51;;;;;;;;;;;17.20;41.50;;;;;;8333223;28;19953;-47
2022/12/07 02:38:55;;;;;;;;;;;17.20;41.40;;;;;;8333828;28;20273;-46
2022/12/07 02:43:03;;;;;;;;;;;17.20;41.40;;;;;;8332084;28;20352;-47
2022/12/07 02:47:05;;;;;;;;;;;17.20;41.40;;;;;;8333122;28;19925;-47
2022/12/07 02:51:06;;;;;;;;;;;17.20;41.40;;;;;;8332737;28;19929;-46
2022/12/07 02:55:07;;;;;;;;;;;17.20;41.40;;;;;;8332451;28;19983;-46
2022/12/07 02:59:17;;;;;;;;;;;17.20;41.40;;;;;;8333626;28;19955;-46
2022/12/07 03:03:18;;;;;;;;;;;17.20;41.40;;;;;;8332689;28;19923;-48
2022/12/07 03:07:18;;;;;;;;;;;17.20;41.40;;;;;;8331932;28;20001;-47
2022/12/07 03:11:28;;;;;;;;;;;17.20;42.00;;;;;;8332413;28;19929;-46
2022/12/07 03:15:33;;;;;;;;;;;17.20;41.50;;;;;;8332180;28;20309;-46
2022/12/07 03:19:35;;;;;;;;;;;17.20;41.40;;;;;;8331871;28;19960;-47
2022/12/07 03:23:37;;;;;;;;;;;17.20;41.40;;;;;;8331866;28;19971;-46
2022/12/07 03:27:44;;;;;;;;;;;17.20;41.40;;;;;;8331832;28;20349;-49
2022/12/07 03:31:46;;;;;;;;;;;17.20;41.40;;;;;;8331329;28;20012;-46
2022/12/07 03:36:06;;;;;;;;;;;17.20;41.40;;;;;;8331803;28;20059;-46
2022/12/07 03:40:22;;;;;;;;;;;17.20;41.50;;;;;;8330929;28;20374;-47
2022/12/07 03:44:23;;;;;;;;;;;17.20;41.50;;;;;;8331772;28;19917;-47
2022/12/07 03:48:56;;;;;;;;;;;17.20;41.50;;;;;;8331113;28;19917;-46
2022/12/07 03:52:59;;;;;;;;;;;17.20;41.50;;;;;;8271225;28;19932;-47
2022/12/07 03:57:01;;;;;;;;;;;17.10;41.50;;;;;;8315676;28;19917;-47
2022/12/07 04:01:01;;;;;;;;;;;17.10;41.50;;;;;;8330447;28;20270;-47
2022/12/07 04:05:02;;;;;;;;;;;17.10;41.50;;;;;;8331139;28;19920;-45
2022/12/07 04:09:03;;;;;;;;;;;17.10;41.50;;;;;;8330786;28;19925;-46
2022/12/07 04:13:03;;;;;;;;;;;17.10;41.50;;;;;;8330145;28;19960;-46
2022/12/07 04:17:04;;;;;;;;;;;17.10;41.50;;;;;;8330607;28;19917;-46
2022/12/07 04:21:04;;;;;;;;;;;17.10;41.50;;;;;;8330614;28;19937;-48
2022/12/07 04:25:05;;;;;;;;;;;17.20;41.60;;;;;;8329760;28;19924;-46
2022/12/07 04:29:05;;;;;;;;;;;17.20;41.50;;;;;;8330493;28;19935;-46
2022/12/07 04:33:06;;;;;;;;;;;17.30;41.50;;;;;;8329880;28;19970;-46
2022/12/07 04:37:06;;;;;;;;;;;17.30;41.40;;;;;;8329682;28;19921;-46
2022/12/07 04:41:07;;;;;;;;;;;17.30;41.30;;;;;;8329833;28;19971;-46
2022/12/07 04:45:08;;;;;;;;;;;17.40;41.30;;;;;;8330068;28;19920;-46
2022/12/07 04:49:09;;;;;;;;;;;17.40;41.20;;;;;;8329444;28;20322;-46
2022/12/07 04:53:09;;;;;;;;;;;17.40;41.20;;;;;;8329659;28;19925;-46
2022/12/07 04:57:10;;;;;;;;;;;17.40;41.20;;;;;;8329806;28;19940;-45
2022/12/07 05:01:11;;;;;;;;;;;17.40;41.30;;;;;;8329329;28;20396;-45
2022/12/07 05:05:11;;;;;;;;;;;17.40;41.30;;;;;;8332900;28;19945;-46
2022/12/07 05:09:12;;;;;;;;;;;17.40;41.30;;;;;;8334844;28;20397;-46
2022/12/07 05:13:12;;;;;;;;;;;17.30;41.20;;;;;;8335439;28;19936;-45
2022/12/07 05:17:13;;;;;;;;;;;17.30;41.20;;;;;;8336062;28;20370;-47
2022/12/07 05:21:13;;;;;;;;;;;17.30;41.30;;;;;;8335894;28;20382;-46
2022/12/07 05:25:14;;;;;;;;;;;17.30;41.30;;;;;;8335360;28;19914;-46
2022/12/07 05:29:15;;;;;;;;;;;17.30;41.40;;;;;;8335688;28;19924;-46
2022/12/07 05:33:16;;;;;;;;;;;17.30;41.40;;;;;;8335618;28;20538;-46
2022/12/07 05:37:16;;;;;;;;;;;17.30;41.40;;;;;;8334912;28;19925;-48
2022/12/07 05:45:37;;;;;;;;;;;17.20;41.50;;;;;;8335119;28;20008;-45
2022/12/07 05:49:37;;;;;;;;;;;17.20;41.40;;;;;;8334817;28;19914;-47
2022/12/07 05:53:37;;;;;;;;;;;17.20;41.50;;;;;;8334712;28;19925;-47
2022/12/07 05:57:38;;;;;;;;;;;17.20;41.50;;;;;;8334773;28;19924;-48
2022/12/07 06:01:38;;;;;;;;;;;17.20;41.50;;;;;;8334136;28;19917;-46
2022/12/07 06:05:39;;;;;;;;;;;17.20;41.50;;;;;;8334550;28;19914;-46
2022/12/07 06:09:39;;;;;;;;;;;17.20;41.50;;;;;;8334061;28;19925;-46
2022/12/07 06:13:40;;;;;;;;;;;17.20;41.50;;;;;;8333734;28;19921;-47
2022/12/07 06:17:40;;;;;;;;;;;17.10;41.50;;;;;;8333224;28;19956;-46
2022/12/07 06:21:41;;;;;;;;;;;17.20;41.50;;;;;;8333554;28;19967;-46
2022/12/07 06:25:44;;;;;;;;;;;17.20;41.60;;;;;;8334098;28;19913;-48
2022/12/07 06:29:45;;;;;;;;;;;17.20;41.60;;;;;;8333667;28;19963;-47
2022/12/07 06:33:45;;;;;;;;;;;17.20;41.50;;;;;;8333391;28;19921;-46
2022/12/07 06:37:46;;;;;;;;;;;17.20;41.40;;;;;;8333332;28;19917;-47
2022/12/07 06:41:47;;;;;;;;;;;17.20;41.40;;;;;;8333167;28;19924;-46
2022/12/07 06:45:47;;;;;;;;;;;17.20;41.40;;;;;;8332492;28;19936;-46
2022/12/07 06:49:47;;;;;;;;;;;17.30;41.50;;;;;;8333499;28;19917;-46
2022/12/07 06:53:48;;;;;;;;;;;17.20;41.40;;;;;;8332918;28;19921;-45
2022/12/07 06:57:48;;;;;;;;;;;17.20;41.40;;;;;;8332255;28;19921;-47
2022/12/07 07:01:49;;;;;;;;;;;17.20;41.40;;;;;;8333043;28;19956;-45
2022/12/07 07:05:49;;;;;;;;;;;17.20;41.40;;;;;;8332838;28;19913;-46
2022/12/07 07:09:50;;;;;;;;;;;17.20;41.50;;;;;;8331733;28;19928;-47
2022/12/07 07:13:50;;;;;;;;;;;17.20;41.50;;;;;;8332632;28;19924;-46
2022/12/07 07:17:51;;;;;;;;;;;17.20;41.50;;;;;;8332052;28;20012;-46
2022/12/07 07:21:51;;;;;;;;;;;17.20;41.50;;;;;;8331489;28;19918;-46
2022/12/07 07:25:52;;;;;;;;;;;17.20;41.50;;;;;;8331885;28;19924;-46
2022/12/07 07:29:52;;;;;;;;;;;17.10;41.50;;;;;;8331546;28;19999;-47
2022/12/07 07:33:53;;;;;;;;;;;17.10;41.50;;;;;;8331179;28;19925;-46
2022/12/07 07:37:53;;;;;;;;;;;17.10;41.60;;;;;;8331358;28;19924;-46
2022/12/07 07:41:54;;;;;;;;;;;17.10;41.60;;;;;;8331299;28;20012;-47
2022/12/07 07:45:54;;;;;;;;;;;17.10;41.60;;;;;;8331151;28;19975;-46
2022/12/07 07:49:55;;;;;;;;;;;17.10;41.60;;;;;;8330916;28;20484;-46
2022/12/07 07:53:55;;;;;;;;;;;17.10;41.60;;;;;;8331163;28;19952;-46
2022/12/07 07:57:56;;;;;;;;;;;17.10;41.60;;;;;;8330286;28;19917;-46
2022/12/07 08:01:56;;;;;;;;;;;17.10;41.60;;;;;;8330788;28;20000;-47
2022/12/07 08:05:57;;;;;;;;;;;17.10;41.60;;;;;;8329747;28;19960;-45
2022/12/07 08:09:57;;;;;;;;;;;17.10;41.60;;;;;;8329938;28;19921;-46
2022/12/07 08:13:57;;;;;;;;;;;17.10;41.60;;;;;;8330731;28;19924;-46
2022/12/07 08:17:58;;;;;;;;;;;17.10;41.60;;;;;;8330451;28;20006;-46
2022/12/07 08:21:58;;;;;;;;;;;17.10;41.60;;;;;;8329990;28;19925;-46
2022/12/07 08:26:02;;;;;;;;;;;17.10;41.60;;;;;;8330291;28;19923;-45
2022/12/07 08:30:03;;;;;;;;;;;17.10;41.60;;;;;;8330286;28;19921;-44
2022/12/07 08:34:03;;;;;;;;;;;17.10;41.60;;;;;;8329733;28;20054;-44
2022/12/07 08:38:04;;;;;;;;;;;17.10;41.60;;;;;;8330493;28;19913;-45
2022/12/07 08:42:04;;;;;;;;;;;17.10;41.60;;;;;;8340380;28;19924;-46
2022/12/07 08:46:19;;;;;;;;;;;17.10;41.60;;;;;;8340574;28;19917;-46
2022/12/07 08:50:20;;;;;;;;;;;17.10;41.60;;;;;;8340848;28;19925;-46
2022/12/07 08:54:20;;;;;;;;;;;17.10;41.60;;;;;;8340805;28;20014;-46
2022/12/07 08:58:21;;;;;;;;;;;17.10;41.60;;;;;;8340157;28;20432;-45
2022/12/07 09:02:21;;;;;;;;;;;17.10;41.60;;;;;;8340755;28;19953;-46
2022/12/07 09:06:22;;;;;;;;;;;17.10;41.60;;;;;;8340737;28;19924;-46
2022/12/07 09:10:23;;;;;;;;;;;17.10;41.60;;;;;;8339816;28;19920;-45
2022/12/07 09:14:23;;;;;;;;;;;17.10;41.60;;;;;;8340263;28;19921;-45
2022/12/07 09:18:24;;;;;;;;;;;17.10;41.60;;;;;;8340409;28;19913;-47
2022/12/07 09:22:27;;;;;;;;;;;17.10;41.60;;;;;;8339660;28;19921;-45
2022/12/07 09:26:28;;;;;;;;;;;17.10;41.60;;;;;;8340332;28;20382;-46
2022/12/07 09:30:28;;;;;;;;;;;17.10;41.60;;;;;;8340173;28;19925;-47
2022/12/07 09:34:30;;;;;;;;;;;17.20;41.60;;;;;;8339470;28;19917;-46
2022/12/07 09:38:31;;;;;;;;;;;17.10;41.60;;;;;;8339939;28;19968;-46
2022/12/07 09:42:33;;;;;;;;;;;17.10;41.60;;;;;;8339991;28;19925;-47
2022/12/07 09:46:38;;;;;;;;;;;17.10;41.60;;;;;;8339694;28;20393;-46
2022/12/07 09:50:39;;;;;;;;;;;17.10;41.60;;;;;;8338321;28;20449;-47
2022/12/07 09:54:41;;;;;;;;;;;17.10;41.60;;;;;;8334476;28;19924;-46
2022/12/07 09:58:42;;;;;;;;;;;17.10;41.60;;;;;;8334703;28;19923;-46
2022/12/07 10:02:49;;;;;;;;;;;17.10;41.60;;;;;;8334401;28;19918;-46
2022/12/07 10:06:50;;;;;;;;;;;17.10;41.60;;;;;;8334010;28;19917;-46
2022/12/07 10:10:52;;;;;;;;;;;17.10;41.60;;;;;;8334089;28;19929;-46
2022/12/07 10:15:00;;;;;;;;;;;17.20;41.60;;;;;;8334099;28;19927;-45
2022/12/07 10:19:19;;;;;;;;;;;17.10;41.60;;;;;;8333476;28;19917;-45
2022/12/07 10:23:20;;;;;;;;;;;17.20;41.60;;;;;;8333616;28;19921;-47
2022/12/07 10:27:31;;;;;;;;;;;17.20;41.60;;;;;;8334071;28;19913;-49
2022/12/07 10:31:31;;;;;;;;;;;17.20;41.60;;;;;;8333239;28;20061;-45
2022/12/07 10:35:32;;;;;;;;;;;17.20;41.60;;;;;;8333637;28;19925;-48
2022/12/07 10:39:40;;;;;;;;;;;17.20;41.60;;;;;;8333467;28;19924;-47
2022/12/07 10:43:46;;;;;;;;;;;17.20;41.60;;;;;;8332941;28;19917;-46
2022/12/07 10:47:49;;;;;;;;;;;17.20;41.60;;;;;;8333209;28;19960;-46
2022/12/07 10:52:01;;;;;;;;;;;17.20;41.60;;;;;;8332655;28;19929;-49
2022/12/07 10:56:04;;;;;;;;;;;17.20;41.60;;;;;;8339073;28;19963;-48
2022/12/07 11:00:24;;;;;;;;;;;17.20;41.60;;;;;;8332649;28;19917;-47
2022/12/07 11:04:35;;;;;;;;;;;17.20;41.60;;;;;;8330461;28;19956;-46
2022/12/07 11:08:54;;;;;;;;;;;17.20;41.60;;;;;;8332579;28;20309;-48
2022/12/07 11:13:13;;;;;;;;;;;17.20;41.50;;;;;;8331705;28;19921;-49
2022/12/07 11:17:13;;;;;;;;;;;17.20;41.50;;;;;;8332312;28;19917;-48
2022/12/07 11:21:37;;;;;;;;;;;17.20;41.50;;;;;;8331976;28;20399;-48
2022/12/07 11:25:49;;;;;;;;;;;17.20;41.50;;;;;;8331363;28;19925;-47
2022/12/07 11:29:52;;;;;;;;;;;17.20;41.50;;;;;;8331589;28;19924;-46
2022/12/07 11:34:05;;;;;;;;;;;17.20;41.50;;;;;;8331330;28;20026;-48
2022/12/07 11:38:15;;;;;;;;;;;17.20;41.50;;;;;;8331400;28;19913;-45
2022/12/07 11:42:21;;;;;;;;;;;17.20;41.50;;;;;;8332282;28;19913;-46
2022/12/07 11:46:24;;;;;;;;;;;17.20;41.50;;;;;;8330786;28;19972;-46
2022/12/07 11:50:26;;;;;;;;;;;17.20;41.70;;;;;;8330990;28;19933;-46
2022/12/07 11:54:30;;;;;;;;;;;17.20;41.40;;;;;;8331056;28;19918;-46
2022/12/07 11:58:33;;;;;;;;;;;17.20;41.50;;;;;;8330282;28;19924;-47
2022/12/07 12:02:40;;;;;;;;;;;17.20;41.50;;;;;;8330949;28;19951;-46
2022/12/07 12:06:42;;;;;;;;;;;17.20;41.50;;;;;;8330669;28;20428;-46
2022/12/07 12:10:54;;;;;;;;;;;17.20;41.50;;;;;;8330059;28;19925;-46
2022/12/07 12:14:54;;;;;;;;;;;17.30;41.40;;;;;;8329521;28;19913;-45
2022/12/07 12:19:10;;;;;;;;;;;17.30;41.40;;;;;;8329761;28;19975;-45
2022/12/07 12:23:19;;;;;;;;;;;17.30;41.50;;;;;;8330340;28;19913;-45
2022/12/07 12:27:29;;;;;;;;;;;17.30;41.50;;;;;;8330501;28;19917;-47
2022/12/07 12:31:36;;;;;;;;;;;17.30;42.00;;;;;;8329313;28;19925;-45
2022/12/07 12:35:37;;;;;;;;;;;17.30;41.40;;;;;;8330031;28;19917;-45
2022/12/07 12:39:37;;;;;;;;;;;17.30;41.40;;;;;;8329974;28;19913;-44
2022/12/07 12:43:52;;;;;;;;;;;17.30;41.40;;;;;;8329475;28;20047;-45
2022/12/07 12:48:00;;;;;;;;;;;17.30;41.40;;;;;;8330455;28;19921;-48
2022/12/07 12:52:03;;;;;;;;;;;17.40;41.50;;;;;;8329451;28;19992;-48
2022/12/07 12:56:09;;;;;;;;;;;17.30;41.40;;;;;;8308955;28;20298;-45
2022/12/07 13:00:17;;;;;;;;;;;17.30;41.70;;;;;;8298363;28;20334;-47
2022/12/07 13:04:23;;;;;;;;;;;17.40;42.60;;;;;;8316712;28;19924;-46
2022/12/07 13:08:25;;;;;;;;;;;17.40;41.80;;;;;;8297071;28;19925;-46
2022/12/07 13:12:25;;;;;;;;;;;17.30;41.50;;;;;;8328434;28;19976;-46
2022/12/07 13:16:26;;;;;;;;;;;17.30;41.40;;;;;;8329097;28;19918;-46
2022/12/07 13:20:49;;;;;;;;;;;17.30;41.30;;;;;;8329428;28;19917;-45
2022/12/07 13:24:54;;;;;;;;;;;17.20;41.30;;;;;;8329487;28;19924;-47
2022/12/07 13:29:09;;;;;;;;;;;17.20;41.40;;;;;;8335809;28;19952;-47
2022/12/07 13:33:10;;;;;;;;;;;17.20;41.40;;;;;;8335476;28;19921;-45
2022/12/07 13:37:15;;;;;;;;;;;17.20;41.40;;;;;;8334844;28;20004;-46
2022/12/07 13:41:17;;;;;;;;;;;17.20;41.40;;;;;;8335410;28;20320;-49
2022/12/07 13:45:47;;;;;;;;;;;17.20;41.40;;;;;;8335030;28;19924;-46
2022/12/07 13:49:47;;;;;;;;;;;17.20;41.50;;;;;;8334377;28;19921;-46
2022/12/07 13:53:49;;;;;;;;;;;17.20;41.50;;;;;;8334995;28;19979;-45
2022/12/07 13:57:51;;;;;;;;;;;17.20;41.50;;;;;;8334171;28;19917;-46
2022/12/07 14:01:52;;;;;;;;;;;17.20;41.40;;;;;;8334540;28;19917;-46
2022/12/07 14:06:11;;;;;;;;;;;17.20;41.40;;;;;;8334567;28;19927;-48
2022/12/07 14:10:25;;;;;;;;;;;17.20;41.40;;;;;;8332668;28;20346;-46
2022/12/07 14:14:27;;;;;;;;;;;17.20;41.40;;;;;;8334387;28;19963;-46
2022/12/07 14:18:38;;;;;;;;;;;17.20;41.40;;;;;;8334458;28;20331;-45
2022/12/07 14:22:39;;;;;;;;;;;17.20;41.40;;;;;;8333515;28;19917;-46
2022/12/07 14:26:40;;;;;;;;;;;17.20;42.00;;;;;;8334216;28;20346;-46
2022/12/07 14:30:41;;;;;;;;;;;17.20;41.50;;;;;;8333765;28;20408;-46
2022/12/07 14:34:41;;;;;;;;;;;17.20;41.50;;;;;;8326497;28;19924;-45
2022/12/07 14:38:42;;;;;;;;;;;17.20;41.50;;;;;;8300327;28;19914;-47
2022/12/07 14:42:45;;;;;;;;;;;17.20;41.60;;;;;;8321916;28;20440;-44
2022/12/07 14:46:45;;;;;;;;;;;17.20;41.70;;;;;;8329758;28;20400;-46
2022/12/07 14:50:49;;;;;;;;;;;17.20;42.50;;;;;;8312858;28;19925;-46
2022/12/07 14:54:50;;;;;;;;;;;17.30;42.50;;;;;;8316246;28;19917;-47
2022/12/07 14:58:50;;;;;;;;;;;17.40;42.50;;;;;;8327411;28;19917;-47
2022/12/07 15:02:51;;;;;;;;;;;17.50;42.50;;;;;;8332433;28;19917;-44
2022/12/07 15:06:59;;;;;;;;;;;17.60;42.30;;;;;;8324379;28;19971;-44
2022/12/07 15:10:59;;;;;;;;;;;17.70;42.30;;;;;;8317338;28;20012;-44
2022/12/07 15:15:01;;;;;;;;;;;17.80;42.30;;;;;;8324811;28;19925;-44
2022/12/07 15:19:02;;;;;;;;;;;17.90;42.20;;;;;;8329295;28;19923;-45
2022/12/07 15:23:02;;;;;;;;;;;18.00;42.20;;;;;;8329590;28;19924;-44
2022/12/07 15:27:03;;;;;;;;;;;18.00;42.10;;;;;;8315919;28;20385;-45
2022/12/07 15:31:03;;;;;;;;;;;18.10;42.10;;;;;;8317159;28;20289;-46
2022/12/07 15:35:04;;;;;;;;;;;18.20;42.00;;;;;;8322838;28;20344;-45
2022/12/07 15:39:04;;;;;;;;;;;18.20;41.90;;;;;;8305459;28;19970;-48
2022/12/07 15:45:03;;;;;;;;;;;18.30;41.90;;;;;;8320539;28;19924;-46
2022/12/07 15:47:26;;;;;;;;;;;18.30;41.90;;;;;;8331153;28;19949;-47
2022/12/07 15:51:27;;;;;;;;;;;18.40;41.90;;;;;;8319947;28;19931;-46
2022/12/07 15:55:27;;;;;;;;;;;18.40;41.90;;;;;;8328144;28;20275;-46
2022/12/07 15:59:28;;;;;;;;;;;18.50;41.90;;;;;;8328800;28;19920;-47
2022/12/07 16:03:28;;;;;;;;;;;18.40;41.70;;;;;;8317297;28;19920;-45
2022/12/07 16:07:29;;;;;;;;;;;18.50;41.90;;;;;;8340016;28;19921;-46
2022/12/07 16:11:29;;;;;;;;;;;18.50;42.00;;;;;;8312397;28;19965;-45
2022/12/07 16:15:30;;;;;;;;;;;18.60;42.00;;;;;;8330742;28;20278;-45
2022/12/07 16:19:31;;;;;;;;;;;18.60;42.00;;;;;;8328469;28;20021;-45
2022/12/07 16:23:31;;;;;;;;;;;18.70;41.80;;;;;;8330346;28;19921;-47
2022/12/07 16:27:32;;;;;;;;;;;18.70;41.70;;;;;;8309499;28;19918;-45
2022/12/07 16:31:33;;;;;;;;;;;18.80;41.70;;;;;;8323970;28;19931;-45
2022/12/07 16:35:34;;;;;;;;;;;18.80;41.70;;;;;;8323172;28;19921;-46
2022/12/07 16:39:34;;;;;;;;;;;18.80;41.70;;;;;;8325389;28;19968;-47
2022/12/07 16:43:35;;;;;;;;;;;18.90;41.70;;;;;;8325850;28;19918;-49
2022/12/07 16:47:39;;;;;;;;;;;18.90;42.00;;;;;;8314471;28;19917;-48
2022/12/07 16:51:41;;;;;;;;;;;18.90;42.20;;;;;;8301401;28;19932;-47
2022/12/07 16:55:43;;;;;;;;;;;18.90;41.40;;;;;;8324342;28;19925;-46
2022/12/07 16:59:44;;;;;;;;;;;18.80;41.70;;;;;;8314840;28;19927;-47
2022/12/07 17:03:45;;;;;;;;;;;18.80;41.90;;;;;;8303313;28;19921;-44
2022/12/07 17:07:46;;;;;;;;;;;18.80;41.90;;;;;;8324691;28;20365;-46
2022/12/07 17:11:46;;;;;;;;;;;18.70;41.90;;;;;;8323287;28;19929;-44
2022/12/07 17:15:53;;;;;;;;;;;18.70;41.80;;;;;;8313459;28;20011;-45
2022/12/07 17:19:54;;;;;;;;;;;18.70;41.70;;;;;;8334777;28;20276;-45
2022/12/07 17:23:54;;;;;;;;;;;18.70;41.60;;;;;;8332691;28;19917;-43
2022/12/07 17:27:55;;;;;;;;;;;18.70;41.60;;;;;;8316912;28;19944;-44
2022/12/07 17:31:55;;;;;;;;;;;18.60;41.60;;;;;;8326704;28;19933;-46
2022/12/07 17:35:56;;;;;;;;;;;18.60;41.60;;;;;;8324615;28;20294;-45
2022/12/07 17:39:57;;;;;;;;;;;18.50;41.60;;;;;;8312316;28;19917;-45
2022/12/07 17:43:57;;;;;;;;;;;18.50;41.60;;;;;;8331946;28;19924;-45
2022/12/07 17:47:57;;;;;;;;;;;18.50;41.60;;;;;;8319955;28;20267;-45
2022/12/07 17:56:17;;;;;;;;;;;18.40;41.60;;;;;;8336347;28;19971;-46
2022/12/07 18:00:18;;;;;;;;;;;18.30;41.50;;;;;;8317783;28;20374;-44
2022/12/07 18:04:18;;;;;;;;;;;18.30;41.60;;;;;;8332721;28;19919;-45
2022/12/07 18:08:19;;;;;;;;;;;18.30;41.70;;;;;;8333794;28;19983;-46
2022/12/07 18:12:19;;;;;;;;;;;18.20;41.60;;;;;;8305345;28;19932;-46
2022/12/07 18:16:21;;;;;;;;;;;18.20;41.70;;;;;;8307053;28;19940;-45
2022/12/07 18:20:22;;;;;;;;;;;18.20;41.60;;;;;;8319247;28;19964;-46
2022/12/07 18:24:22;;;;;;;;;;;18.10;41.60;;;;;;8317873;28;19960;-47
2022/12/07 18:28:23;;;;;;;;;;;18.20;41.60;;;;;;8314487;28;19948;-44
2022/12/07 18:32:23;;;;;;;;;;;18.10;41.60;;;;;;8313862;28;19936;-45
2022/12/07 18:36:24;;;;;;;;;;;18.00;41.60;;;;;;8300994;28;19926;-45
2022/12/07 18:40:24;;;;;;;;;;;18.10;41.70;;;;;;8318638;28;20496;-45
2022/12/07 18:44:25;;;;;;;;;;;18.00;41.70;;;;;;8333423;28;19921;-45
2022/12/07 18:48:25;;;;;;;;;;;18.00;41.80;;;;;;8313610;28;19918;-45
2022/12/07 18:52:26;;;;;;;;;;;18.00;41.80;;;;;;8303055;28;19925;-45
2022/12/07 18:56:26;;;;;;;;;;;18.00;41.90;;;;;;8303975;28;20397;-45
2022/12/07 19:00:28;;;;;;;;;;;17.90;41.90;;;;;;8318562;28;19918;-42
2022/12/07 19:04:28;;;;;;;;;;;17.90;41.90;;;;;;8309229;28;19917;-42
2022/12/07 19:08:29;;;;;;;;;;;17.90;41.90;;;;;;8319996;28;20289;-45
2022/12/07 19:12:29;;;;;;;;;;;17.90;41.90;;;;;;8334272;28;19926;-45
2022/12/07 19:16:30;;;;;;;;;;;17.80;41.80;;;;;;8313396;28;20271;-47
2022/12/07 19:20:30;;;;;;;;;;;17.80;41.80;;;;;;8332929;28;20384;-44
2022/12/07 19:24:31;;;;;;;;;;;17.80;41.90;;;;;;8331796;28;19928;-47
2022/12/07 19:28:31;;;;;;;;;;;17.80;41.90;;;;;;8331536;28;19960;-46
2022/12/07 19:32:32;;;;;;;;;;;17.80;41.90;;;;;;8331753;28;19987;-44
2022/12/07 19:36:32;;;;;;;;;;;17.70;41.90;;;;;;8331771;28;19917;-45
2022/12/07 19:40:33;;;;;;;;;;;17.70;41.90;;;;;;8331337;28;20429;-45
2022/12/07 19:44:33;;;;;;;;;;;17.70;41.90;;;;;;8331779;28;19925;-45
2022/12/07 19:48:34;;;;;;;;;;;17.70;41.90;;;;;;8331510;28;19948;-46
2022/12/07 19:52:34;;;;;;;;;;;17.60;41.90;;;;;;8330611;28;19929;-46
2022/12/07 19:56:35;;;;;;;;;;;17.60;41.90;;;;;;8331099;28;19920;-46
2022/12/07 20:00:35;;;;;;;;;;;17.60;41.90;;;;;;8331273;28;20012;-47
2022/12/07 20:04:36;;;;;;;;;;;17.60;41.80;;;;;;8325745;28;19960;-46
2022/12/07 20:08:36;;;;;;;;;;;17.60;41.60;;;;;;8317017;28;20309;-45
2022/12/07 20:16:58;;;;;;;;;;;17.60;41.60;;;;;;8329742;28;25824;-45
2022/12/07 20:20:58;;;;;;;;;;;17.60;41.60;;;;;;8331076;28;19913;-45
2022/12/07 20:24:59;;;;;;;;;;;17.60;41.60;;;;;;8330231;28;19921;-44
2022/12/07 20:28:59;;;;;;;;;;;17.60;41.50;;;;;;8330141;28;20362;-45
2022/12/07 20:33:00;;;;;;;;;;;17.70;41.50;;;;;;8330497;28;20374;-46
2022/12/07 20:37:00;;;;;;;;;;;17.60;41.50;;;;;;8329158;28;19921;-46
2022/12/07 20:41:02;;;;;;;;;;;17.60;41.50;;;;;;8330532;28;19914;-45
2022/12/07 20:45:05;;;;;;;;;;;17.60;41.50;;;;;;8329011;28;19917;-47
2022/12/07 20:49:06;;;;;;;;;;;17.70;41.50;;;;;;8329712;28;19917;-44
2022/12/07 20:53:06;;;;;;;;;;;17.60;41.50;;;;;;8330231;28;19924;-45
2022/12/07 20:57:07;;;;;;;;;;;17.60;41.50;;;;;;8329801;28;19979;-45
2022/12/07 21:01:07;;;;;;;;;;;17.60;41.50;;;;;;8329572;28;19913;-43
2022/12/07 21:05:08;;;;;;;;;;;17.60;41.60;;;;;;8329958;28;19917;-45
2022/12/07 21:09:09;;;;;;;;;;;17.50;41.60;;;;;;8329706;28;19921;-46
2022/12/07 21:13:09;;;;;;;;;;;17.50;41.60;;;;;;8329202;28;20003;-44
2022/12/07 21:17:09;;;;;;;;;;;17.50;41.60;;;;;;8329687;28;19921;-45
2022/12/07 21:21:10;;;;;;;;;;;17.40;41.60;;;;;;8329888;28;19913;-45
2022/12/07 21:25:11;;;;;;;;;;;17.40;41.60;;;;;;8327789;28;19917;-44
2022/12/07 21:29:11;;;;;;;;;;;17.40;41.60;;;;;;8329617;28;20422;-45
2022/12/07 21:33:12;;;;;;;;;;;17.40;41.70;;;;;;8329654;28;19979;-45
2022/12/07 21:37:12;;;;;;;;;;;17.40;41.70;;;;;;8329101;28;19992;-45
2022/12/07 21:41:35;;;;;;;;;;;17.30;41.60;;;;;;8329577;28;19914;-46
2022/12/07 21:45:36;;;;;;;;;;;17.30;41.60;;;;;;8329464;28;19917;-45
2022/12/07 21:49:36;;;;;;;;;;;17.30;41.60;;;;;;8333544;28;19924;-44
2022/12/07 21:53:38;;;;;;;;;;;17.30;41.60;;;;;;8335312;28;19925;-45
2022/12/07 21:57:38;;;;;;;;;;;17.30;41.60;;;;;;8335004;28;19947;-45
2022/12/07 22:01:39;;;;;;;;;;;17.30;41.60;;;;;;8334631;28;20277;-45
2022/12/07 22:05:40;;;;;;;;;;;17.30;41.60;;;;;;8334793;28;19924;-45
2022/12/07 22:09:40;;;;;;;;;;;17.30;41.60;;;;;;8333140;28;19921;-43
2022/12/07 22:18:01;;;;;;;;;;;17.30;41.60;;;;;;8334627;28;19923;-45
2022/12/07 22:22:01;;;;;;;;;;;17.20;41.50;;;;;;8334110;28;19921;-46
2022/12/07 22:26:06;;;;;;;;;;;17.20;41.60;;;;;;8334283;28;20011;-43
2022/12/07 22:30:08;;;;;;;;;;;17.20;41.50;;;;;;8334135;28;20270;-45
2022/12/07 22:34:15;;;;;;;;;;;17.20;41.60;;;;;;8333246;28;19925;-45
2022/12/07 22:38:16;;;;;;;;;;;17.20;41.50;;;;;;8333871;28;20448;-45
2022/12/07 22:42:16;;;;;;;;;;;17.20;41.40;;;;;;8333784;28;19939;-44
2022/12/07 22:46:16;;;;;;;;;;;17.30;41.40;;;;;;8332867;28;19921;-44
2022/12/07 22:50:17;;;;;;;;;;;17.30;41.40;;;;;;8333274;28;20004;-45
2022/12/07 22:54:17;;;;;;;;;;;17.30;41.40;;;;;;8333265;28;20370;-44
2022/12/07 22:58:18;;;;;;;;;;;17.30;41.40;;;;;;8331844;28;19917;-43
2022/12/07 23:02:18;;;;;;;;;;;17.30;41.30;;;;;;8348306;28;19920;-43
2022/12/07 23:06:23;;;;;;;;;;;17.30;41.30;;;;;;8352433;28;19923;-43
2022/12/07 23:10:24;;;;;;;;;;;17.30;41.30;;;;;;8332120;28;19921;-43
2022/12/07 23:14:27;;;;;;;;;;;17.30;41.30;;;;;;8332621;28;19956;-44
2022/12/07 23:18:27;;;;;;;;;;;17.30;41.30;;;;;;8332495;28;19956;-43
2022/12/07 23:22:28;;;;;;;;;;;17.20;41.30;;;;;;8332041;28;19917;-44
2022/12/07 23:26:28;;;;;;;;;;;17.20;41.20;;;;;;8332146;28;20351;-43
2022/12/07 23:30:29;;;;;;;;;;;17.20;41.20;;;;;;8331997;28;19924;-43
2022/12/07 23:34:29;;;;;;;;;;;17.20;41.20;;;;;;8331532;28;20011;-43
2022/12/07 23:38:29;;;;;;;;;;;17.20;41.20;;;;;;8332039;28;19920;-43
2022/12/07 23:42:31;;;;;;;;;;;17.20;41.20;;;;;;8331956;28;19917;-43
2022/12/07 23:46:32;;;;;;;;;;;17.20;41.20;;;;;;8331167;28;19960;-43